Time,TemperatureF,DewpointF,PressureIn,WindDirection,WindDirectionDegrees,WindSpeedMPH,WindSpeedGustMPH,Humidity,HourlyPrecipIn,Conditions,Clouds,dailyrainin,SoftwareType,DateUTC
2013-07-07 01:11:00,76.0,75.0,29.94,SSE,158,0.0,3.0,96,0.00,,,0.01,,2013-07-07 06:11:00,
2013-07-07 01:21:00,76.0,75.0,29.94,SSE,158,0.0,3.0,96,0.00,,,0.01,,2013-07-07 06:21:00,
2013-07-07 01:32:00,76.0,75.0,29.94,SSE,158,0.0,3.0,96,0.00,,,0.01,,2013-07-07 06:32:00,
2013-07-07 01:43:00,76.0,75.0,29.94,SSE,158,0.0,1.0,97,0.00,,,0.01,,2013-07-07 06:43:00,
2013-07-07 01:52:00,76.0,75.0,29.94,SSE,158,0.0,1.0,97,0.00,,,0.01,,2013-07-07 06:52:00,
2013-07-07 02:02:00,76.0,75.0,29.94,SE,143,1.0,5.0,97,0.00,,,0.01,,2013-07-07 07:02:00,
2013-07-07 02:11:00,76.0,75.0,29.94,ESE,109,2.0,6.0,97,0.00,,,0.01,,2013-07-07 07:11:00,
2013-07-07 02:22:00,76.0,75.0,29.94,ESE,109,2.0,6.0,97,0.00,,,0.01,,2013-07-07 07:22:00,
2013-07-07 02:33:00,76.0,75.0,29.94,ESE,109,2.0,6.0,97,0.00,,,0.01,,2013-07-07 07:33:00,
2013-07-07 02:44:00,76.0,75.0,29.94,SSE,159,3.0,7.0,97,0.00,,,0.01,,2013-07-07 07:44:00,
2013-07-07 02:53:00,76.0,75.0,29.94,SE,146,1.0,6.0,97,0.00,,,0.01,,2013-07-07 07:53:00,
2013-07-07 03:02:00,76.0,75.0,29.94,SSE,157,1.0,6.0,97,0.00,,,0.01,,2013-07-07 08:02:00,
2013-07-07 03:12:00,76.0,75.0,29.94,SSE,160,2.0,6.0,97,0.00,,,0.01,,2013-07-07 08:12:00,
2013-07-07 03:22:00,76.0,75.0,29.94,SSE,160,2.0,6.0,97,0.00,,,0.01,,2013-07-07 08:22:00,
2013-07-07 03:34:00,76.0,75.0,29.94,SSE,161,4.0,8.0,97,0.00,,,0.01,,2013-07-07 08:34:00,
2013-07-07 03:44:00,76.0,75.0,29.94,SSE,161,4.0,8.0,97,0.00,,,0.01,,2013-07-07 08:44:00,
2013-07-07 03:53:00,76.0,75.0,29.94,SSE,153,3.0,7.0,97,0.00,,,0.01,,2013-07-07 08:53:00,
2013-07-07 04:02:00,76.0,75.0,29.95,SSE,166,4.0,7.0,97,0.00,,,0.01,,2013-07-07 09:02:00,
2013-07-07 04:12:00,76.0,75.0,29.95,SSE,164,1.0,9.0,97,0.00,,,0.01,,2013-07-07 09:12:00,
2013-07-07 04:22:00,76.0,75.0,29.96,SSE,151,3.0,6.0,97,0.00,,,0.01,,2013-07-07 09:22:00,
2013-07-07 04:34:00,76.0,75.0,29.96,SSE,153,1.0,5.0,97,0.00,,,0.01,,2013-07-07 09:34:00,
2013-07-07 04:43:00,76.0,75.0,29.96,SSE,153,1.0,5.0,97,0.00,,,0.01,,2013-07-07 09:43:00,
2013-07-07 04:53:00,76.0,75.0,29.96,SSE,153,1.0,5.0,97,0.00,,,0.01,,2013-07-07 09:53:00,
2013-07-07 05:03:00,76.0,75.0,29.95,SE,133,1.0,5.0,97,0.00,,,0.01,,2013-07-07 10:03:00,
2013-07-07 05:12:00,76.0,75.0,29.95,SE,133,1.0,5.0,97,0.00,,,0.01,,2013-07-07 10:12:00,
2013-07-07 05:22:00,76.0,75.0,29.95,SE,133,1.0,5.0,97,0.00,,,0.01,,2013-07-07 10:22:00,
2013-07-07 05:32:00,76.0,75.0,29.95,SSE,151,1.0,6.0,97,0.00,,,0.01,,2013-07-07 10:32:00,
2013-07-07 05:43:00,76.0,75.0,29.95,SSE,151,1.0,6.0,97,0.00,,,0.01,,2013-07-07 10:43:00,
2013-07-07 05:52:00,76.0,75.0,29.95,SSE,163,2.0,5.0,97,0.00,,,0.01,,2013-07-07 10:52:00,
2013-07-07 06:02:00,76.0,75.0,29.96,SE,140,0.0,3.0,97,0.00,,,0.01,,2013-07-07 11:02:00,
2013-07-07 06:11:00,76.0,75.0,29.96,SE,124,1.0,5.0,97,0.00,,,0.01,,2013-07-07 11:11:00,
2013-07-07 06:23:00,76.0,75.0,29.96,SE,124,1.0,5.0,97,0.00,,,0.01,,2013-07-07 11:23:00,
2013-07-07 06:34:00,76.0,75.0,29.96,SE,124,1.0,5.0,97,0.00,,,0.01,,2013-07-07 11:34:00,
2013-07-07 06:43:00,76.0,75.0,29.96,SSE,159,3.0,7.0,98,0.00,,,0.01,,2013-07-07 11:43:00,
2013-07-07 06:53:00,76.0,75.0,29.96,SE,136,1.0,6.0,98,0.00,,,0.01,,2013-07-07 11:53:00,
2013-07-07 07:02:00,76.0,75.0,29.96,SSE,147,1.0,6.0,98,0.00,,,0.01,,2013-07-07 12:02:00,
2013-07-07 07:12:00,76.0,75.0,29.96,SSE,147,1.0,6.0,98,0.00,,,0.01,,2013-07-07 12:12:00,
2013-07-07 07:22:00,76.0,75.0,29.97,SSE,149,3.0,7.0,97,0.00,,,0.01,,2013-07-07 12:22:00,
2013-07-07 07:34:00,77.0,76.0,29.98,SSE,156,2.0,6.0,97,0.00,,,0.01,,2013-07-07 12:34:00,
2013-07-07 07:43:00,77.0,76.0,29.99,SSE,157,2.0,6.0,97,0.00,,,0.01,,2013-07-07 12:43:00,
2013-07-07 07:52:00,77.0,76.0,29.99,SE,131,2.0,6.0,97,0.00,,,0.01,,2013-07-07 12:52:00,
2013-07-07 08:02:00,78.0,77.0,29.99,SE,141,1.0,5.0,96,0.00,,,0.01,,2013-07-07 13:02:00,
2013-07-07 08:11:00,78.0,77.0,29.99,SE,141,1.0,5.0,96,0.00,,,0.01,,2013-07-07 13:11:00,
2013-07-07 08:22:00,78.0,77.0,29.99,SE,141,1.0,5.0,96,0.00,,,0.01,,2013-07-07 13:22:00,
2013-07-07 08:34:00,76.0,75.0,30.00,SSE,160,6.0,10.0,97,0.66,,,0.67,,2013-07-07 13:34:00,
2013-07-07 08:43:00,76.0,75.0,30.00,SSW,195,1.0,7.0,98,1.06,,,1.07,,2013-07-07 13:43:00,
2013-07-07 08:52:00,76.0,75.0,30.01,SSW,195,0.0,0.0,98,1.16,,,1.17,,2013-07-07 13:52:00,
2013-07-07 09:02:00,76.0,75.0,30.01,SSW,195,0.0,0.0,98,1.16,,,1.17,,2013-07-07 14:02:00,
2013-07-07 09:12:00,76.0,75.0,30.01,SSW,195,0.0,0.0,98,1.16,,,1.17,,2013-07-07 14:12:00,
2013-07-07 09:22:00,76.0,75.0,30.01,SW,216,0.0,5.0,98,0.97,,,1.20,,2013-07-07 14:22:00,
2013-07-07 09:34:00,76.0,75.0,30.01,SSW,203,0.0,1.0,98,0.53,,,1.20,,2013-07-07 14:34:00,
2013-07-07 09:43:00,76.0,75.0,30.01,SSE,162,0.0,0.0,98,0.14,,,1.21,,2013-07-07 14:43:00,
2013-07-07 09:53:00,76.0,75.0,30.01,SSE,162,0.0,0.0,98,0.14,,,1.21,,2013-07-07 14:53:00,
2013-07-07 10:02:00,76.0,75.0,30.01,SSE,162,0.0,0.0,98,0.04,,,1.23,,2013-07-07 15:02:00,
2013-07-07 10:11:00,76.0,75.0,30.01,SSE,162,0.0,0.0,98,0.04,,,1.23,,2013-07-07 15:11:00,
2013-07-07 10:22:00,76.0,75.0,30.01,SSE,162,0.0,0.0,98,0.04,,,1.23,,2013-07-07 15:22:00,
2013-07-07 10:34:00,79.0,78.0,30.01,South,174,0.0,3.0,98,0.03,,,1.23,,2013-07-07 15:34:00,
2013-07-07 10:43:00,80.0,79.0,30.01,ESE,123,0.0,3.0,97,0.02,,,1.23,,2013-07-07 15:43:00,
2013-07-07 10:52:00,80.0,79.0,30.01,ESE,123,0.0,3.0,97,0.02,,,1.23,,2013-07-07 15:52:00,
2013-07-07 11:01:00,81.0,79.0,29.99,SSE,160,1.0,5.0,93,0.00,,,1.23,,2013-07-07 16:01:00,
2013-07-07 11:11:00,81.0,79.0,29.99,SSE,160,1.0,5.0,93,0.00,,,1.23,,2013-07-07 16:11:00,
2013-07-07 11:23:00,81.0,79.0,29.99,SSE,160,1.0,5.0,93,0.00,,,1.23,,2013-07-07 16:23:00,
2013-07-07 11:43:00,84.0,79.0,29.98,South,182,2.0,6.0,84,0.00,,,1.23,,2013-07-07 16:43:00,
2013-07-07 11:53:00,84.0,78.0,29.98,SSE,154,3.0,6.0,83,0.00,,,1.23,,2013-07-07 16:53:00,
2013-07-07 12:02:00,85.0,79.0,29.98,SSE,162,3.0,6.0,82,0.01,,,1.24,,2013-07-07 17:02:00,
2013-07-07 12:12:00,85.0,79.0,29.98,SSE,162,3.0,6.0,82,0.01,,,1.24,,2013-07-07 17:12:00,
2013-07-07 12:22:00,85.0,78.0,29.98,South,175,1.0,7.0,81,0.01,,,1.24,,2013-07-07 17:22:00,
2013-07-07 12:34:00,84.0,78.0,29.98,SSE,167,3.0,8.0,82,0.01,,,1.24,,2013-07-07 17:34:00,
2013-07-07 12:43:00,84.0,78.0,29.98,SE,146,3.0,8.0,82,0.01,,,1.24,,2013-07-07 17:43:00,
2013-07-07 12:53:00,84.0,78.0,29.98,SE,146,3.0,8.0,82,0.01,,,1.24,,2013-07-07 17:53:00,
2013-07-07 13:01:00,82.0,74.0,29.98,South,171,0.0,3.0,78,0.00,,,1.24,,2013-07-07 18:01:00,
2013-07-07 13:02:00,84.0,78.0,29.98,SE,146,3.0,8.0,82,0.01,,,1.24,,2013-07-07 18:02:00,
2013-07-07 13:11:00,84.0,78.0,29.98,SE,146,3.0,8.0,82,0.01,,,1.24,,2013-07-07 18:11:00,
2013-07-07 13:22:00,82.0,74.0,29.98,South,171,0.0,3.0,78,0.00,,,1.24,,2013-07-07 18:22:00,
2013-07-07 13:33:00,82.0,74.0,29.98,South,171,0.0,3.0,78,0.00,,,1.24,,2013-07-07 18:33:00,
2013-07-07 13:43:00,82.0,74.0,29.98,South,171,0.0,3.0,78,0.00,,,1.24,,2013-07-07 18:43:00,
2013-07-07 13:53:00,82.0,74.0,29.98,South,171,0.0,3.0,78,0.00,,,1.24,,2013-07-07 18:53:00,
2013-07-07 14:11:00,86.0,76.0,29.97,NNE,18,0.0,1.0,72,0.00,,,1.24,,2013-07-07 19:11:00,
2013-07-07 14:22:00,86.0,77.0,29.97,South,173,1.0,5.0,74,0.00,,,1.24,,2013-07-07 19:22:00,
2013-07-07 14:34:00,87.0,78.0,29.97,West,274,0.0,7.0,75,0.00,,,1.24,,2013-07-07 19:34:00,
2013-07-07 14:43:00,87.0,78.0,29.96,South,182,1.0,3.0,74,0.00,,,1.24,,2013-07-07 19:43:00,
2013-07-07 14:54:00,87.0,78.0,29.96,SSW,203,1.0,3.0,75,0.00,,,1.23,,2013-07-07 19:54:00,
2013-07-07 15:02:00,87.0,78.0,29.96,SSW,212,1.0,6.0,76,0.00,,,1.23,,2013-07-07 20:02:00,
2013-07-07 15:11:00,87.0,78.0,29.96,SSW,212,1.0,6.0,76,0.00,,,1.23,,2013-07-07 20:11:00,
2013-07-07 15:22:00,80.0,77.0,29.98,SW,216,2.0,7.0,92,0.00,,,1.23,,2013-07-07 20:22:00,
2013-07-07 15:34:00,80.0,77.0,29.98,SW,216,2.0,7.0,92,0.00,,,1.23,,2013-07-07 20:34:00,
2013-07-07 15:42:00,79.0,76.0,29.99,West,263,1.0,3.0,92,0.01,,,1.24,,2013-07-07 20:42:00,
2013-07-07 15:53:00,79.0,76.0,29.99,West,277,0.0,2.0,91,0.01,,,1.24,,2013-07-07 20:53:00,
2013-07-07 16:02:00,80.0,77.0,29.99,West,277,0.0,1.0,90,0.01,,,1.24,,2013-07-07 21:02:00,
2013-07-07 16:11:00,80.0,77.0,29.99,West,277,0.0,1.0,90,0.01,,,1.24,,2013-07-07 21:11:00,
2013-07-07 16:22:00,80.0,77.0,29.99,West,277,0.0,1.0,90,0.01,,,1.24,,2013-07-07 21:22:00,
2013-07-07 16:33:00,80.0,76.0,29.99,WSW,251,1.0,6.0,88,0.01,,,1.25,,2013-07-07 21:33:00,
2013-07-07 16:43:00,80.0,76.0,29.99,WSW,251,1.0,6.0,88,0.01,,,1.25,,2013-07-07 21:43:00,
2013-07-07 16:53:00,80.0,76.0,29.99,WSW,251,1.0,6.0,88,0.01,,,1.25,,2013-07-07 21:53:00,
2013-07-07 17:01:00,80.0,76.0,29.99,WSW,251,1.0,6.0,88,0.01,,,1.25,,2013-07-07 22:01:00,
2013-07-07 17:11:00,80.0,75.0,29.98,SW,233,1.0,6.0,84,0.01,,,1.25,,2013-07-07 22:11:00,
2013-07-07 17:22:00,80.0,75.0,29.98,SW,233,1.0,6.0,84,0.01,,,1.25,,2013-07-07 22:22:00,
2013-07-07 17:34:00,80.0,75.0,29.98,SW,233,1.0,6.0,84,0.01,,,1.25,,2013-07-07 22:34:00,
2013-07-07 17:43:00,80.0,76.0,29.97,WSW,239,1.0,6.0,88,0.00,,,1.25,,2013-07-07 22:43:00,
2013-07-07 17:53:00,80.0,76.0,29.97,WSW,239,1.0,6.0,88,0.00,,,1.25,,2013-07-07 22:53:00,
2013-07-07 18:02:00,80.0,76.0,29.99,WSW,247,0.0,3.0,88,0.00,,,1.25,,2013-07-07 23:02:00,
2013-07-07 18:12:00,80.0,76.0,29.99,WSW,247,0.0,3.0,88,0.00,,,1.25,,2013-07-07 23:12:00,
2013-07-07 18:22:00,80.0,76.0,29.99,WSW,247,0.0,3.0,88,0.00,,,1.25,,2013-07-07 23:22:00,
2013-07-07 18:33:00,80.0,75.0,30.00,WSW,240,0.0,2.0,86,0.00,,,1.25,,2013-07-07 23:33:00,
2013-07-07 18:43:00,80.0,76.0,30.00,WSW,240,0.0,0.0,87,0.00,,,1.25,,2013-07-07 23:43:00,
2013-07-07 18:53:00,80.0,76.0,30.00,WSW,240,0.0,0.0,87,0.00,,,1.25,,2013-07-07 23:53:00,
2013-07-07 19:01:00,80.0,76.0,30.00,WSW,240,0.0,0.0,87,0.00,,,1.25,,2013-07-08 00:01:00,
2013-07-07 19:11:00,80.0,76.0,29.99,SSW,196,0.0,0.0,88,0.00,,,1.25,,2013-07-08 00:11:00,
2013-07-07 19:22:00,80.0,76.0,30.00,SSW,196,0.0,0.0,88,0.00,,,1.25,,2013-07-08 00:22:00,
2013-07-07 19:33:00,80.0,76.0,30.00,SSW,196,0.0,0.0,88,0.00,,,1.25,,2013-07-08 00:33:00,
2013-07-07 19:43:00,79.0,75.0,30.00,SSW,196,0.0,0.0,88,0.00,,,1.25,,2013-07-08 00:43:00,
2013-07-07 19:53:00,79.0,75.0,30.01,SSW,205,0.0,3.0,88,0.00,,,1.25,,2013-07-08 00:53:00,
2013-07-07 20:01:00,79.0,75.0,30.01,SSW,205,0.0,3.0,88,0.00,,,1.25,,2013-07-08 01:01:00,
2013-07-07 20:11:00,79.0,75.0,30.01,SSW,205,0.0,0.0,88,0.00,,,1.25,,2013-07-08 01:11:00,
2013-07-07 20:22:00,78.0,74.0,30.01,South,178,1.0,2.0,88,0.00,,,1.25,,2013-07-08 01:22:00,
2013-07-07 20:32:00,78.0,74.0,30.01,SSE,152,1.0,3.0,89,0.00,,,1.25,,2013-07-08 01:32:00,
2013-07-07 20:43:00,78.0,74.0,30.01,SSE,152,1.0,3.0,89,0.00,,,1.25,,2013-07-08 01:43:00,
2013-07-07 20:52:00,77.0,74.0,30.01,SSE,152,0.0,0.0,90,0.00,,,1.25,,2013-07-08 01:52:00,
2013-07-07 21:02:00,77.0,74.0,30.01,SSE,157,1.0,2.0,91,0.00,,,1.25,,2013-07-08 02:02:00,
2013-07-07 21:11:00,77.0,74.0,30.01,SSE,157,1.0,2.0,91,0.00,,,1.25,,2013-07-08 02:11:00,
2013-07-07 21:22:00,77.0,75.0,30.02,SSE,159,3.0,5.0,93,0.00,,,1.25,,2013-07-08 02:22:00,
2013-07-07 21:33:00,77.0,75.0,30.03,SSE,161,3.0,6.0,94,0.00,,,1.25,,2013-07-08 02:33:00,
2013-07-07 21:42:00,77.0,75.0,30.03,SSE,161,3.0,6.0,94,0.00,,,1.25,,2013-07-08 02:42:00,
2013-07-07 21:52:00,77.0,75.0,30.03,SSE,161,3.0,6.0,94,0.00,,,1.25,,2013-07-08 02:52:00,
2013-07-07 22:01:00,77.0,75.0,30.03,SSE,161,3.0,6.0,94,0.00,,,1.25,,2013-07-08 03:01:00,
2013-07-07 22:12:00,77.0,75.0,30.04,ESE,104,0.0,5.0,95,0.00,,,1.25,,2013-07-08 03:12:00,
2013-07-07 22:23:00,76.0,74.0,30.04,ESE,121,0.0,3.0,95,0.00,,,1.25,,2013-07-08 03:23:00,
2013-07-07 22:34:00,76.0,74.0,30.04,ESE,121,0.0,3.0,95,0.00,,,1.25,,2013-07-08 03:34:00,
2013-07-07 22:42:00,76.0,75.0,30.05,ESE,121,1.0,5.0,96,0.00,,,1.25,,2013-07-08 03:42:00,
2013-07-07 22:52:00,76.0,75.0,30.05,SSE,147,1.0,3.0,96,0.00,,,1.25,,2013-07-08 03:52:00,
2013-07-07 23:02:00,76.0,75.0,30.05,South,184,0.0,3.0,96,0.00,,,1.25,,2013-07-08 04:02:00,
2013-07-07 23:12:00,76.0,75.0,30.05,South,184,0.0,3.0,96,0.00,,,1.25,,2013-07-08 04:12:00,
2013-07-07 23:22:00,76.0,75.0,30.05,South,182,0.0,0.0,96,0.00,,,1.25,,2013-07-08 04:22:00,
2013-07-07 23:33:00,75.0,74.0,30.05,South,182,0.0,0.0,96,0.00,,,1.25,,2013-07-08 04:33:00,
2013-07-07 23:42:00,75.0,74.0,30.05,South,182,0.0,0.0,96,0.00,,,1.25,,2013-07-08 04:42:00,
2013-07-07 23:53:00,75.0,74.0,30.05,South,182,0.0,0.0,96,0.00,,,1.25,,2013-07-08 04:53:00,